createdAt,value
2023-05-21T00:02:15.809Z,51.70
2023-05-21T00:04:42.323Z,52.10
2023-05-21T00:07:08.847Z,51.50
2023-05-21T00:09:35.386Z,52.00
2023-05-21T00:12:01.873Z,51.90
2023-05-21T00:14:28.411Z,51.70
2023-05-21T00:16:54.944Z,52.80
2023-05-21T00:19:21.539Z,51.90
2023-05-21T00:21:48.116Z,52.20
2023-05-21T00:24:14.600Z,51.70
2023-05-21T00:26:41.135Z,51.90
2023-05-21T00:29:07.653Z,52.00
2023-05-21T00:31:34.221Z,51.80
2023-05-21T00:34:00.759Z,51.90
2023-05-21T00:36:27.283Z,51.80
2023-05-21T00:38:53.794Z,52.30
2023-05-21T00:41:20.352Z,52.20
2023-05-21T00:43:46.875Z,52.00
2023-05-21T00:46:13.535Z,52.30
2023-05-21T00:48:40.084Z,52.30
2023-05-21T00:51:06.570Z,51.80
2023-05-21T00:53:33.095Z,51.70
2023-05-21T00:55:59.632Z,51.80
2023-05-21T00:58:26.163Z,52.00
2023-05-21T01:00:52.691Z,51.90
2023-05-21T01:03:19.389Z,52.30
2023-05-21T01:05:45.977Z,51.80
2023-05-21T01:08:12.476Z,51.80
2023-05-21T01:10:38.950Z,52.00
2023-05-21T01:13:05.456Z,51.80
2023-05-21T01:15:31.937Z,51.70
2023-05-21T01:17:58.524Z,51.50
2023-05-21T01:20:25.139Z,51.50
2023-05-21T01:22:51.643Z,52.30
2023-05-21T01:25:18.163Z,51.90
2023-05-21T01:27:44.662Z,51.90
2023-05-21T01:30:11.148Z,52.40
2023-05-21T01:32:37.774Z,52.30
2023-05-21T01:35:04.336Z,51.80
2023-05-21T01:37:30.874Z,52.00
2023-05-21T01:39:57.392Z,51.80
2023-05-21T01:42:23.879Z,52.30
2023-05-21T01:44:50.377Z,51.80
2023-05-21T01:47:16.896Z,52.40
2023-05-21T01:49:43.407Z,52.40
2023-05-21T01:52:09.902Z,52.30
2023-05-21T01:54:36.410Z,52.40
2023-05-21T01:57:02.905Z,51.10
2023-05-21T01:59:29.442Z,52.10
2023-05-21T02:01:56.022Z,52.30
2023-05-21T02:04:22.563Z,51.90
2023-05-21T02:06:49.081Z,52.20
2023-05-21T02:09:15.570Z,51.70
2023-05-21T02:11:42.080Z,52.10
2023-05-21T02:14:08.590Z,51.90
2023-05-21T02:16:35.164Z,52.40
2023-05-21T02:19:01.765Z,52.50
2023-05-21T02:21:28.336Z,52.20
2023-05-21T02:23:54.883Z,51.80
2023-05-21T02:26:21.439Z,52.40
2023-05-21T02:28:47.929Z,51.90
2023-05-21T02:31:14.460Z,52.40
2023-05-21T02:33:40.974Z,51.90
2023-05-21T02:36:07.531Z,52.00
2023-05-21T02:38:34.044Z,52.40
2023-05-21T02:41:00.630Z,52.10
2023-05-21T02:43:27.134Z,51.70
2023-05-21T02:45:53.802Z,52.10
2023-05-21T02:48:20.348Z,52.00
2023-05-21T02:50:46.857Z,51.90
2023-05-21T02:53:13.401Z,52.40
2023-05-21T02:55:39.976Z,51.90
2023-05-21T02:58:06.538Z,52.40
2023-05-21T03:00:33.032Z,52.30
2023-05-21T03:02:59.588Z,52.20
2023-05-21T03:05:26.220Z,52.20
2023-05-21T03:07:52.753Z,52.40
2023-05-21T03:10:19.258Z,52.50
2023-05-21T03:12:45.763Z,52.00
2023-05-21T03:15:12.327Z,52.40
2023-05-21T03:17:38.921Z,52.40
2023-05-21T03:20:05.501Z,51.90
2023-05-21T03:22:32.046Z,52.00
2023-05-21T03:24:58.574Z,51.90
2023-05-21T03:27:25.077Z,52.40
2023-05-21T03:29:51.590Z,52.40
2023-05-21T03:32:18.276Z,51.80
2023-05-21T03:34:44.846Z,51.90
2023-05-21T03:37:11.343Z,52.50
2023-05-21T03:39:37.835Z,52.40
2023-05-21T03:42:04.392Z,51.90
2023-05-21T03:44:30.899Z,52.10
2023-05-21T03:46:57.388Z,51.90
2023-05-21T03:49:23.891Z,51.90
2023-05-21T03:51:50.404Z,51.90
2023-05-21T03:54:16.891Z,51.80
2023-05-21T03:56:43.378Z,51.90
2023-05-21T03:59:09.899Z,52.40
2023-05-21T04:01:36.419Z,52.40
2023-05-21T04:04:03.148Z,51.90
2023-05-21T04:06:29.822Z,52.10
2023-05-21T04:08:56.350Z,52.40
2023-05-21T04:11:22.873Z,52.30
2023-05-21T04:13:49.413Z,51.90
2023-05-21T04:16:15.960Z,52.10
2023-05-21T04:18:44.854Z,51.80
2023-05-21T04:21:12.102Z,51.40
2023-05-21T04:23:38.661Z,51.70
2023-05-21T04:26:05.185Z,51.80
2023-05-21T04:28:31.681Z,51.90
2023-05-21T04:30:58.271Z,52.10
2023-05-21T04:33:24.803Z,51.80
2023-05-21T04:35:51.297Z,52.10
2023-05-21T04:38:17.784Z,52.10
2023-05-21T04:40:44.302Z,52.50
2023-05-21T04:43:10.819Z,52.60
2023-05-21T04:45:37.532Z,52.30
2023-05-21T04:48:04.219Z,51.80
2023-05-21T04:50:30.957Z,52.00
2023-05-21T04:52:57.519Z,52.20
2023-05-21T04:55:24.032Z,52.10
2023-05-21T04:57:50.542Z,52.00
2023-05-21T05:00:17.074Z,52.50
2023-05-21T05:02:43.698Z,52.20
2023-05-21T05:05:10.265Z,51.60
2023-05-21T05:07:36.749Z,52.30
2023-05-21T05:10:03.265Z,51.90
2023-05-21T05:12:29.777Z,51.90
2023-05-21T05:14:56.324Z,52.40
2023-05-21T05:17:22.834Z,52.00
2023-05-21T05:19:49.358Z,51.70
2023-05-21T05:22:15.865Z,51.90
2023-05-21T05:24:42.410Z,52.50
2023-05-21T05:27:08.984Z,52.50
2023-05-21T05:29:35.496Z,52.10
2023-05-21T05:32:02.033Z,52.00
2023-05-21T05:34:28.554Z,52.00
2023-05-21T05:36:55.078Z,52.20
2023-05-21T05:39:21.583Z,51.60
2023-05-21T05:41:48.118Z,52.00
2023-05-21T05:44:14.625Z,52.50
2023-05-21T05:49:08.229Z,52.00
2023-05-21T05:51:34.728Z,52.00
2023-05-21T05:54:01.237Z,52.30
2023-05-21T05:56:27.741Z,52.40
2023-05-21T05:58:54.268Z,52.20
2023-05-21T06:01:20.783Z,52.20
2023-05-21T06:03:47.501Z,52.10
2023-05-21T06:06:14.209Z,52.30
2023-05-21T06:08:40.757Z,52.80
2023-05-21T06:11:07.296Z,52.60
2023-05-21T06:13:33.837Z,53.10
2023-05-21T06:16:00.458Z,53.40
2023-05-21T06:18:27.008Z,53.70
2023-05-21T06:20:53.525Z,53.50
2023-05-21T06:23:20.003Z,53.60
2023-05-21T06:25:46.523Z,53.60
2023-05-21T06:28:13.051Z,54.00
2023-05-21T06:30:39.557Z,53.80
2023-05-21T06:33:06.197Z,54.80
2023-05-21T06:35:32.730Z,53.80
2023-05-21T06:37:59.269Z,54.40
2023-05-21T06:40:25.811Z,54.20
2023-05-21T06:42:52.333Z,53.40
2023-05-21T06:45:18.869Z,53.30
2023-05-21T06:47:45.481Z,53.80
2023-05-21T06:50:12.091Z,53.90
2023-05-21T06:52:38.635Z,53.60
2023-05-21T06:55:05.114Z,53.50
2023-05-21T06:57:31.619Z,54.20
2023-05-21T06:59:58.124Z,54.00
2023-05-21T07:02:24.732Z,53.80
2023-05-21T07:04:51.314Z,53.90
2023-05-21T07:07:17.807Z,53.90
2023-05-21T07:09:44.289Z,54.50
2023-05-21T07:12:10.810Z,54.70
2023-05-21T07:14:37.306Z,54.20
2023-05-21T07:17:03.856Z,53.80
2023-05-21T07:19:30.430Z,53.80
2023-05-21T07:21:56.983Z,54.30
2023-05-21T07:24:23.516Z,54.20
2023-05-21T07:26:50.036Z,54.90
2023-05-21T07:29:16.555Z,54.40
2023-05-21T07:31:43.112Z,54.80
2023-05-21T07:34:09.693Z,54.10
2023-05-21T07:39:03.282Z,54.50
2023-05-21T07:41:29.807Z,54.90
2023-05-21T07:43:56.327Z,54.40
2023-05-21T07:46:22.907Z,54.80
2023-05-21T07:48:49.420Z,54.30
2023-05-21T07:51:15.900Z,54.40
2023-05-21T07:53:42.431Z,54.50
2023-05-21T07:56:08.963Z,54.70
2023-05-21T07:58:35.479Z,55.00
2023-05-21T08:01:02.069Z,54.80
2023-05-21T08:03:28.727Z,55.10
2023-05-21T08:05:55.384Z,54.70
2023-05-21T08:08:21.872Z,55.40
2023-05-21T08:10:48.380Z,55.00
2023-05-21T08:13:14.907Z,55.40
2023-05-21T08:15:41.464Z,55.70
2023-05-21T08:18:08.001Z,55.60
2023-05-21T08:20:34.546Z,55.10
2023-05-21T08:23:01.060Z,55.80
2023-05-21T08:25:27.552Z,55.10
2023-05-21T08:27:54.088Z,55.90
2023-05-21T08:30:20.635Z,55.80
2023-05-21T08:32:47.279Z,56.00
2023-05-21T08:35:13.812Z,55.40
2023-05-21T08:37:40.316Z,55.80
2023-05-21T08:40:06.843Z,55.90
2023-05-21T08:42:36.967Z,55.90
2023-05-21T08:45:04.188Z,55.10
2023-05-21T08:47:30.771Z,55.90
2023-05-21T08:49:57.295Z,55.00
2023-05-21T08:52:23.810Z,54.40
2023-05-21T08:54:50.313Z,55.00
2023-05-21T08:57:16.794Z,54.80
2023-05-21T08:59:43.287Z,54.80
2023-05-21T09:02:09.820Z,55.30
2023-05-21T09:04:36.460Z,54.50
2023-05-21T09:09:30.127Z,55.70
2023-05-21T09:11:56.659Z,55.20
2023-05-21T09:14:23.215Z,55.50
2023-05-21T09:16:49.778Z,55.50
2023-05-21T09:19:16.441Z,56.30
2023-05-21T09:21:42.980Z,57.00
2023-05-21T09:24:09.498Z,56.30
2023-05-21T09:26:36.084Z,56.60
2023-05-21T09:29:02.610Z,56.60
2023-05-21T09:31:29.249Z,57.20
2023-05-21T09:33:55.825Z,56.90
2023-05-21T09:36:22.361Z,57.00
2023-05-21T09:38:48.866Z,56.50
2023-05-21T09:41:17.406Z,56.70
2023-05-21T09:43:46.435Z,56.50
2023-05-21T09:46:12.926Z,57.30
2023-05-21T09:48:39.539Z,57.60
2023-05-21T09:51:06.020Z,57.10
2023-05-21T09:53:32.532Z,56.90
2023-05-21T09:55:59.036Z,57.30
2023-05-21T09:58:25.580Z,56.50
2023-05-21T10:00:52.081Z,57.40
2023-05-21T10:03:18.692Z,57.30
2023-05-21T10:05:45.262Z,57.40
2023-05-21T10:08:11.812Z,57.40
2023-05-21T10:10:38.571Z,57.30
2023-05-21T10:13:05.322Z,57.20
2023-05-21T10:15:31.861Z,56.50
2023-05-21T10:17:58.453Z,57.10
2023-05-21T10:22:52.110Z,56.20
2023-05-21T10:25:18.640Z,56.80
2023-05-21T10:27:45.173Z,56.70
2023-05-21T10:30:11.685Z,56.70
2023-05-21T10:32:38.333Z,56.10
2023-05-21T10:35:04.906Z,55.90
2023-05-21T10:37:31.467Z,56.60
2023-05-21T10:39:58.012Z,56.40
2023-05-21T10:42:24.544Z,56.20
2023-05-21T10:44:51.089Z,56.40
2023-05-21T10:47:17.596Z,56.20
2023-05-21T10:49:44.116Z,56.60
2023-05-21T10:52:10.683Z,56.70
2023-05-21T10:54:37.214Z,56.80
2023-05-21T10:57:03.758Z,56.80
2023-05-21T10:59:30.324Z,57.10
2023-05-21T11:01:56.851Z,57.50
2023-05-21T11:04:23.331Z,57.70
2023-05-21T11:06:49.872Z,57.30
2023-05-21T11:09:16.391Z,58.10
2023-05-21T11:11:42.930Z,57.90
2023-05-21T11:14:09.462Z,57.50
2023-05-21T11:16:35.973Z,57.70
2023-05-21T11:19:02.527Z,57.50
2023-05-21T11:21:29.180Z,57.40
2023-05-21T11:23:55.765Z,56.90
2023-05-21T11:26:22.274Z,57.40
2023-05-21T11:28:48.849Z,57.60
2023-05-21T11:31:15.421Z,57.80
2023-05-21T11:33:41.972Z,57.60
2023-05-21T11:36:08.487Z,57.50
2023-05-21T11:38:35.001Z,57.60
2023-05-21T11:41:01.509Z,57.70
2023-05-21T11:43:28.043Z,57.00
2023-05-21T11:45:54.580Z,57.60
2023-05-21T11:48:21.066Z,57.50
2023-05-21T11:50:47.609Z,57.40
2023-05-21T11:53:14.127Z,57.40
2023-05-21T11:55:40.654Z,57.40
2023-05-21T11:58:07.148Z,57.30
2023-05-21T12:00:33.739Z,57.00
2023-05-21T12:03:00.389Z,57.20
2023-05-21T12:05:26.912Z,56.40
2023-05-21T12:07:53.468Z,56.20
2023-05-21T12:10:19.980Z,56.50
2023-05-21T12:12:54.956Z,56.10
2023-05-21T12:15:22.711Z,56.50
2023-05-21T12:17:49.416Z,56.30
2023-05-21T12:20:15.991Z,56.60
2023-05-21T12:22:42.556Z,56.60
2023-05-21T12:25:09.042Z,56.50
2023-05-21T12:27:35.575Z,56.80
2023-05-21T12:30:02.084Z,57.00
2023-05-21T12:32:28.609Z,57.30
2023-05-21T12:34:55.205Z,57.20
2023-05-21T12:37:21.710Z,56.70
2023-05-21T12:39:48.272Z,56.20
2023-05-21T12:42:14.822Z,56.80
2023-05-21T12:44:41.363Z,57.30
2023-05-21T12:47:07.889Z,56.90
2023-05-21T12:49:34.372Z,56.30
2023-05-21T12:52:00.912Z,56.80
2023-05-21T12:54:27.458Z,57.00
2023-05-21T12:56:54.008Z,56.80
2023-05-21T12:59:20.548Z,57.00
2023-05-21T13:01:47.156Z,56.60
2023-05-21T13:04:13.752Z,57.10
2023-05-21T13:06:40.322Z,56.40
2023-05-21T13:09:06.857Z,57.00
2023-05-21T13:11:33.402Z,56.70
2023-05-21T13:13:59.895Z,56.40
2023-05-21T13:16:26.463Z,56.70
2023-05-21T13:23:47.101Z,56.40
2023-05-21T13:26:13.668Z,57.00
2023-05-21T13:28:41.883Z,57.30
2023-05-21T13:31:09.223Z,56.40
2023-05-21T13:33:35.956Z,56.30
2023-05-21T13:36:02.723Z,56.90
2023-05-21T13:38:29.254Z,56.30
2023-05-21T13:40:55.799Z,56.60
2023-05-21T13:43:22.313Z,55.60
2023-05-21T13:45:49.850Z,56.10
2023-05-21T13:48:16.594Z,55.80
2023-05-21T13:50:43.147Z,56.30
2023-05-21T13:53:09.645Z,56.60
2023-05-21T13:55:36.153Z,55.40
2023-05-21T13:58:02.710Z,56.10
2023-05-21T14:00:29.239Z,56.30
2023-05-21T14:02:55.869Z,55.60
2023-05-21T14:05:22.515Z,56.00
2023-05-21T14:07:49.052Z,55.70
2023-05-21T14:10:15.588Z,55.30
2023-05-21T14:12:42.203Z,56.00
2023-05-21T14:15:08.756Z,56.40
2023-05-21T14:17:35.319Z,55.30
2023-05-21T14:22:28.899Z,55.60
2023-05-21T14:24:55.398Z,56.40
2023-05-21T14:27:22.010Z,55.40
2023-05-21T14:29:48.511Z,55.80
2023-05-21T14:32:15.060Z,56.20
2023-05-21T14:34:41.685Z,56.20
2023-05-21T14:37:08.209Z,55.90
2023-05-21T14:39:34.740Z,55.70
2023-05-21T14:42:01.269Z,56.30
2023-05-21T14:44:27.842Z,56.60
2023-05-21T14:46:54.355Z,56.30
2023-05-21T14:49:20.877Z,56.40
2023-05-21T14:51:47.368Z,56.70
2023-05-21T14:54:13.912Z,56.10
2023-05-21T14:56:40.417Z,56.50
2023-05-21T14:59:06.969Z,56.60
2023-05-21T15:01:33.511Z,56.00
2023-05-21T15:04:00.292Z,56.50
2023-05-21T15:06:27.116Z,55.80
2023-05-21T15:13:47.758Z,56.50
2023-05-21T15:16:14.290Z,56.80
2023-05-21T15:18:40.866Z,56.40
2023-05-21T15:21:07.357Z,57.20
2023-05-21T15:23:33.885Z,57.40
2023-05-21T15:26:00.387Z,56.80
2023-05-21T15:28:27.009Z,53.90
2023-05-21T15:30:53.495Z,53.60
2023-05-21T15:33:20.011Z,52.30
2023-05-21T15:35:46.641Z,53.00
2023-05-21T15:38:13.212Z,52.70
2023-05-21T15:40:39.725Z,51.60
2023-05-21T15:43:06.218Z,51.50
2023-05-21T15:45:32.706Z,51.30
2023-05-21T15:47:59.225Z,49.40
2023-05-21T15:50:25.805Z,50.40
2023-05-21T15:52:53.557Z,48.90
2023-05-21T15:55:20.331Z,49.40
2023-05-21T15:57:46.896Z,49.80
2023-05-21T16:00:13.433Z,49.70
2023-05-21T16:02:39.971Z,50.00
2023-05-21T16:05:06.490Z,51.00
2023-05-21T16:07:33.308Z,50.70
2023-05-21T16:10:00.711Z,50.70
2023-05-21T16:12:27.227Z,50.00
2023-05-21T16:14:53.739Z,50.30
2023-05-21T16:17:20.377Z,50.70
2023-05-21T16:19:47.016Z,50.10
2023-05-21T16:22:13.557Z,51.10
2023-05-21T16:24:40.096Z,50.60
2023-05-21T16:27:06.596Z,50.50
2023-05-21T16:32:00.253Z,50.30
2023-05-21T16:34:26.895Z,50.10
2023-05-21T16:36:53.429Z,49.80
2023-05-21T16:39:19.969Z,49.70
2023-05-21T16:41:46.475Z,50.70
2023-05-21T16:44:13.010Z,50.60
2023-05-21T16:46:39.510Z,49.80
2023-05-21T16:49:06.049Z,50.20
2023-05-21T16:51:32.610Z,51.00
2023-05-21T16:53:59.096Z,50.20
2023-05-21T16:56:25.655Z,51.90
2023-05-21T16:58:52.194Z,52.70
2023-05-21T17:01:18.764Z,52.80
2023-05-21T17:03:45.427Z,52.80
2023-05-21T17:06:11.946Z,52.20
2023-05-21T17:08:38.469Z,52.90
2023-05-21T17:11:05.034Z,53.00
2023-05-21T17:13:31.643Z,53.80
2023-05-21T17:15:58.161Z,53.00
2023-05-21T17:18:24.736Z,53.20
2023-05-21T17:20:51.260Z,53.40
2023-05-21T17:23:17.880Z,53.80
2023-05-21T17:25:44.450Z,53.40
2023-05-21T17:28:11.013Z,53.60
2023-05-21T17:30:37.576Z,53.60
2023-05-21T17:33:04.178Z,53.70
2023-05-21T17:35:30.793Z,53.80
2023-05-21T17:37:57.335Z,54.30
2023-05-21T17:40:23.895Z,53.90
2023-05-21T17:42:50.379Z,54.20
2023-05-21T17:45:16.889Z,54.60
2023-05-21T17:47:43.537Z,54.80
2023-05-21T17:50:10.099Z,53.80
2023-05-21T17:52:36.585Z,54.60
2023-05-21T17:55:03.111Z,54.00
2023-05-21T17:57:29.657Z,54.90
2023-05-21T17:59:56.189Z,54.00
2023-05-21T18:02:22.736Z,54.30
2023-05-21T18:04:49.278Z,53.80
2023-05-21T18:07:15.774Z,54.70
2023-05-21T18:09:42.268Z,54.60
2023-05-21T18:12:08.854Z,54.90
2023-05-21T18:14:35.409Z,55.00
2023-05-21T18:17:01.960Z,54.50
2023-05-21T18:19:28.620Z,55.40
2023-05-21T18:21:55.215Z,55.10
2023-05-21T18:24:21.729Z,54.40
2023-05-21T18:26:48.248Z,55.00
2023-05-21T18:29:14.773Z,54.50
2023-05-21T18:31:41.326Z,55.10
2023-05-21T18:34:07.898Z,54.30
2023-05-21T18:36:34.436Z,54.50
2023-05-21T18:39:01.039Z,55.20
2023-05-21T18:41:27.558Z,54.60
2023-05-21T18:43:54.121Z,54.80
2023-05-21T18:46:20.743Z,55.00
2023-05-21T18:48:49.174Z,55.20
2023-05-21T18:51:15.709Z,54.70
2023-05-21T18:53:42.252Z,54.50
2023-05-21T18:56:08.812Z,55.40
2023-05-21T18:58:35.314Z,55.20
2023-05-21T19:01:01.840Z,55.80
2023-05-21T19:03:28.373Z,55.80
2023-05-21T19:05:54.883Z,55.80
2023-05-21T19:08:21.374Z,55.40
2023-05-21T19:10:47.894Z,55.00
2023-05-21T19:13:14.479Z,55.10
2023-05-21T19:15:41.004Z,56.10
2023-05-21T19:18:07.609Z,55.30
2023-05-21T19:20:34.242Z,55.80
2023-05-21T19:23:00.783Z,55.30
2023-05-21T19:25:27.314Z,55.90
2023-05-21T19:27:53.848Z,55.20
2023-05-21T19:30:20.379Z,55.40
2023-05-21T19:32:46.922Z,55.80
2023-05-21T19:35:13.453Z,56.10
2023-05-21T19:37:40.002Z,55.40
2023-05-21T19:40:06.568Z,56.10
2023-05-21T19:42:33.069Z,56.20
2023-05-21T19:44:59.602Z,55.70
2023-05-21T19:47:26.157Z,55.60
2023-05-21T19:49:52.736Z,56.10
2023-05-21T19:52:19.248Z,55.40
2023-05-21T19:54:45.742Z,55.40
2023-05-21T19:57:12.568Z,55.40
2023-05-21T19:59:39.156Z,55.40
2023-05-21T20:02:05.736Z,55.30
2023-05-21T20:04:32.282Z,56.00
2023-05-21T20:09:25.860Z,55.10
2023-05-21T20:11:52.385Z,55.80
2023-05-21T20:14:18.928Z,55.00
2023-05-21T20:16:45.485Z,55.00
2023-05-21T20:19:12.052Z,55.50
2023-05-21T20:21:38.547Z,54.60
2023-05-21T20:24:05.073Z,55.50
2023-05-21T20:26:31.585Z,55.50
2023-05-21T20:28:58.092Z,55.00
2023-05-21T20:31:24.692Z,54.70
2023-05-21T20:33:51.259Z,55.20
2023-05-21T20:36:17.804Z,55.80
2023-05-21T20:38:44.398Z,54.80
2023-05-21T20:41:10.906Z,54.80
2023-05-21T20:43:37.519Z,55.40
2023-05-21T20:46:04.181Z,55.30
2023-05-21T20:48:30.723Z,54.70
2023-05-21T20:53:24.356Z,55.00
2023-05-21T20:55:50.875Z,54.50
2023-05-21T20:58:17.410Z,55.10
2023-05-21T21:00:43.947Z,55.00
2023-05-21T21:03:10.630Z,55.10
2023-05-21T21:05:37.198Z,54.60
2023-05-21T21:08:03.717Z,54.60
2023-05-21T21:10:30.226Z,54.90
2023-05-21T21:12:56.751Z,54.70
2023-05-21T21:15:23.284Z,55.00
2023-05-21T21:17:49.823Z,55.30
2023-05-21T21:22:43.394Z,54.40
2023-05-21T21:25:09.934Z,55.00
2023-05-21T21:27:36.470Z,54.40
2023-05-21T21:30:03.005Z,54.90
2023-05-21T21:32:29.524Z,54.50
2023-05-21T21:34:56.062Z,54.30
2023-05-21T21:37:22.585Z,54.50
2023-05-21T21:39:49.105Z,54.70
2023-05-21T21:42:15.644Z,53.90
2023-05-21T21:44:42.228Z,54.40
2023-05-21T21:47:08.790Z,54.60
2023-05-21T21:49:35.316Z,55.40
2023-05-21T21:52:01.843Z,54.50
2023-05-21T21:54:28.390Z,53.90
2023-05-21T21:56:54.923Z,54.70
2023-05-21T21:59:21.443Z,55.40
2023-05-21T22:01:47.994Z,54.10
2023-05-21T22:04:14.488Z,54.10
2023-05-21T22:06:40.978Z,54.10
2023-05-21T22:09:07.533Z,53.90
2023-05-21T22:11:34.064Z,53.70
2023-05-21T22:14:00.567Z,53.90
2023-05-21T22:16:27.121Z,54.40
2023-05-21T22:21:21.004Z,54.10
2023-05-21T22:23:47.544Z,55.10
2023-05-21T22:26:14.082Z,54.20
2023-05-21T22:28:40.614Z,54.90
2023-05-21T22:31:07.186Z,54.60
2023-05-21T22:33:33.776Z,54.20
2023-05-21T22:36:00.380Z,54.20
2023-05-21T22:38:26.901Z,54.10
2023-05-21T22:40:53.429Z,54.20
2023-05-21T22:43:19.920Z,54.10
2023-05-21T22:45:46.457Z,54.60
2023-05-21T22:48:13.045Z,53.90
2023-05-21T22:50:39.787Z,54.60
2023-05-21T22:53:06.505Z,53.90
2023-05-21T22:55:33.022Z,53.30
2023-05-21T22:57:59.553Z,54.40
2023-05-21T23:00:26.138Z,53.80
2023-05-21T23:02:54.268Z,53.60
2023-05-21T23:05:21.388Z,53.80
2023-05-21T23:07:47.942Z,54.10
2023-05-21T23:12:41.527Z,54.20
2023-05-21T23:15:08.028Z,53.80
2023-05-21T23:17:34.536Z,53.50
2023-05-21T23:20:01.088Z,54.20
2023-05-21T23:22:27.612Z,53.70
2023-05-21T23:24:54.204Z,53.70
2023-05-21T23:27:20.772Z,53.60
2023-05-21T23:29:47.261Z,53.30
2023-05-21T23:32:13.743Z,54.10
2023-05-21T23:34:40.257Z,54.20
2023-05-21T23:37:06.765Z,53.90
2023-05-21T23:39:33.277Z,53.50
2023-05-21T23:41:59.764Z,53.20
2023-05-21T23:44:26.314Z,53.40
2023-05-21T23:46:52.837Z,53.40
2023-05-21T23:49:19.346Z,53.00
2023-05-21T23:51:45.877Z,52.80
2023-05-21T23:54:12.362Z,53.40
2023-05-21T23:56:38.874Z,53.50
2023-05-21T23:59:05.420Z,53.20
